Time;durP1;ratioP1;P1;durP2;ratioP2;P2;SDS_P1;SDS_P2;PMS_P1;PMS_P2;Temp;Humidity;BMP_temperature;BMP_pressure;BME280_temperature;BME280_humidity;BME280_pressure;Samples;Min_cycle;Max_cycle;Signal;HPM_P1;HPM_P2
2024/01/27 00:02:02;;;;;;;3.42;3.13;;;2.50;99.90;;;;;;4927909;29;20144;-40
2024/01/27 00:04:28;;;;;;;2.40;2.20;;;2.40;99.90;;;;;;4921752;29;20299;-39
2024/01/27 00:06:53;;;;;;;3.10;2.10;;;2.50;99.90;;;;;;4927093;29;20226;-39
2024/01/27 00:09:19;;;;;;;2.72;2.47;;;2.40;99.90;;;;;;4919584;29;20426;-37
2024/01/27 00:11:45;;;;;;;5.82;1.98;;;2.40;99.90;;;;;;4926022;29;20040;-41
2024/01/27 00:14:11;;;;;;;4.05;1.48;;;2.30;99.90;;;;;;4920473;29;20119;-40
2024/01/27 00:16:37;;;;;;;2.25;1.90;;;1.90;99.90;;;;;;4923522;29;20509;-38
2024/01/27 00:19:02;;;;;;;2.08;1.88;;;1.80;99.90;;;;;;4899161;29;20040;-42
2024/01/27 00:21:28;;;;;;;3.45;1.80;;;1.70;99.90;;;;;;4923541;29;20042;-39
2024/01/27 00:23:54;;;;;;;6.97;2.10;;;1.70;99.90;;;;;;4900594;29;20046;-40
2024/01/27 00:26:20;;;;;;;2.42;1.67;;;1.80;99.90;;;;;;4924871;29;20060;-42
2024/01/27 00:28:46;;;;;;;2.00;1.70;;;1.80;99.90;;;;;;4920014;29;20619;-39
2024/01/27 00:31:11;;;;;;;1.83;1.70;;;1.80;99.90;;;;;;4905451;29;20729;-40
2024/01/27 00:33:37;;;;;;;3.92;1.50;;;1.90;99.90;;;;;;4913777;29;20052;-40
2024/01/27 00:36:03;;;;;;;2.10;1.90;;;1.80;99.90;;;;;;4919878;29;20489;-43
2024/01/27 00:38:29;;;;;;;3.78;2.00;;;1.80;99.90;;;;;;4918810;29;20020;-42
2024/01/27 00:40:54;;;;;;;3.42;2.42;;;1.90;99.90;;;;;;4923179;29;20044;-39
2024/01/27 00:43:20;;;;;;;5.90;2.20;;;1.80;99.90;;;;;;4920382;29;20545;-42
2024/01/27 00:45:46;;;;;;;2.00;1.83;;;1.90;99.90;;;;;;4921742;29;20038;-40
2024/01/27 00:48:12;;;;;;;2.28;2.00;;;1.90;99.90;;;;;;4919062;29;20139;-41
2024/01/27 00:50:37;;;;;;;2.30;2.10;;;1.90;99.90;;;;;;4904554;29;20111;-40
2024/01/27 00:53:03;;;;;;;2.90;2.05;;;2.00;99.90;;;;;;4924659;29;20091;-43
2024/01/27 00:55:29;;;;;;;2.78;2.50;;;2.00;99.90;;;;;;4917989;29;20114;-41
2024/01/27 00:57:54;;;;;;;2.10;1.60;;;2.00;99.90;;;;;;4921675;29;20039;-41
2024/01/27 01:00:20;;;;;;;3.28;2.30;;;2.00;99.90;;;;;;4903754;29;20079;-42
2024/01/27 01:02:45;;;;;;;2.95;1.80;;;1.90;99.90;;;;;;4921708;29;20043;-41
2024/01/27 01:05:11;;;;;;;1.33;1.33;;;1.90;99.90;;;;;;4923707;29;20156;-39
2024/01/27 01:07:37;;;;;;;2.78;1.70;;;1.90;99.90;;;;;;4926043;29;20369;-41
2024/01/27 01:10:04;;;;;;;3.53;2.08;;;1.70;99.90;;;;;;4924776;29;20042;-34
2024/01/27 01:12:35;;;;;;;1.85;1.75;;;1.50;99.90;;;;;;4921610;29;20054;-34
2024/01/27 01:15:01;;;;;;;1.70;1.42;;;1.40;99.90;;;;;;4918676;29;20024;-36
2024/01/27 01:17:27;;;;;;;1.30;1.20;;;1.30;99.90;;;;;;4919026;29;20032;-33
2024/01/27 01:19:53;;;;;;;1.40;1.30;;;1.20;99.90;;;;;;4917954;29;20031;-34
2024/01/27 01:22:18;;;;;;;1.98;1.88;;;1.30;99.90;;;;;;4922405;29;20032;-33
2024/01/27 01:24:44;;;;;;;1.85;1.70;;;1.30;99.90;;;;;;4922096;29;20028;-32
2024/01/27 01:27:10;;;;;;;2.85;2.13;;;1.40;99.90;;;;;;4916720;29;20756;-32
2024/01/27 01:29:35;;;;;;;1.63;1.52;;;1.40;99.90;;;;;;4920526;29;20072;-33
2024/01/27 01:32:04;;;;;;;1.50;1.40;;;1.40;99.90;;;;;;4921495;29;20036;-36
2024/01/27 01:34:30;;;;;;;2.67;1.77;;;1.30;99.90;;;;;;4908841;29;20032;-33
2024/01/27 01:36:57;;;;;;;1.60;1.50;;;1.30;99.90;;;;;;4905436;29;20390;-38
2024/01/27 01:39:23;;;;;;;1.73;1.50;;;1.20;99.90;;;;;;4906950;29;20498;-37
2024/01/27 01:41:48;;;;;;;4.20;1.92;;;1.00;99.90;;;;;;4920265;29;20060;-32
2024/01/27 01:44:14;;;;;;;6.18;2.17;;;1.10;99.90;;;;;;4923867;29;20084;-32
2024/01/27 01:46:39;;;;;;;1.85;1.75;;;1.10;99.90;;;;;;4923174;29;20042;-33
2024/01/27 01:49:05;;;;;;;4.10;2.05;;;1.20;99.90;;;;;;4920287;29;20044;-32
2024/01/27 01:51:31;;;;;;;2.33;1.80;;;0.90;99.90;;;;;;4921534;29;20310;-35
2024/01/27 01:53:58;;;;;;;3.15;1.65;;;0.80;99.90;;;;;;4902920;29;20039;-36
2024/01/27 01:56:25;;;;;;;1.80;1.50;;;0.80;99.90;;;;;;4925826;29;20036;-39
2024/01/27 01:58:50;;;;;;;2.47;1.65;;;0.80;99.90;;;;;;4928720;29;20439;-33
2024/01/27 02:01:18;;;;;;;2.13;1.98;;;0.80;99.90;;;;;;4923896;29;20043;-32
2024/01/27 02:03:53;;;;;;;3.72;1.90;;;0.80;99.90;;;;;;4926650;29;20023;-33
2024/01/27 02:06:19;;;;;;;2.38;2.00;;;0.80;99.90;;;;;;4915420;29;20083;-32
2024/01/27 02:08:44;;;;;;;1.55;1.50;;;0.80;99.90;;;;;;4927114;29;20047;-33
2024/01/27 02:11:10;;;;;;;2.95;1.48;;;0.90;99.90;;;;;;4891833;29;20048;-35
2024/01/27 02:13:36;;;;;;;4.28;1.77;;;0.80;99.90;;;;;;4927855;29;20111;-32
2024/01/27 02:16:01;;;;;;;2.28;1.52;;;0.60;99.90;;;;;;4907457;29;20034;-33
2024/01/27 02:18:27;;;;;;;5.57;2.20;;;0.60;99.90;;;;;;4925803;29;20028;-35
2024/01/27 02:20:53;;;;;;;1.55;1.55;;;0.50;99.90;;;;;;4924851;29;20042;-33
2024/01/27 02:23:18;;;;;;;1.85;1.75;;;0.50;99.90;;;;;;4905075;29;20521;-33
2024/01/27 02:25:44;;;;;;;5.05;1.30;;;0.30;99.90;;;;;;4931606;29;20051;-32
2024/01/27 02:28:10;;;;;;;2.35;1.50;;;0.20;99.90;;;;;;4926999;29;20031;-35
2024/01/27 02:30:39;;;;;;;1.52;1.42;;;0.00;99.90;;;;;;4923336;29;20044;-34
2024/01/27 02:33:09;;;;;;;1.27;1.27;;;-0.10;99.90;;;;;;4923533;29;20056;-33
2024/01/27 02:35:36;;;;;;;1.33;1.27;;;-0.20;99.90;;;;;;4912277;29;20542;-33
2024/01/27 02:38:01;;;;;;;2.47;1.67;;;-0.10;99.90;;;;;;4920783;29;20036;-34
2024/01/27 02:40:28;;;;;;;10.05;2.28;;;-0.10;99.90;;;;;;4925139;29;20066;-35
2024/01/27 02:42:53;;;;;;;2.30;1.67;;;-0.10;99.90;;;;;;4905847;29;20043;-34
2024/01/27 02:45:19;;;;;;;1.60;1.50;;;0.00;99.90;;;;;;4927400;29;20639;-35
2024/01/27 02:47:47;;;;;;;2.05;1.50;;;0.00;99.90;;;;;;4923382;29;20482;-34
2024/01/27 02:50:14;;;;;;;2.13;2.03;;;-0.10;99.90;;;;;;4925295;29;20036;-38
2024/01/27 02:52:40;;;;;;;3.17;1.80;;;-0.10;99.90;;;;;;4874759;29;20032;-33
2024/01/27 02:55:12;;;;;;;1.83;1.50;;;-0.10;99.90;;;;;;4910868;29;20036;-35
2024/01/27 02:57:40;;;;;;;2.20;1.45;;;0.00;99.90;;;;;;4907929;29;20049;-34
2024/01/27 03:00:09;;;;;;;4.60;2.35;;;0.00;99.90;;;;;;4909215;29;20095;-33
2024/01/27 03:02:35;;;;;;;1.73;1.63;;;0.10;99.90;;;;;;4920102;29;20131;-36
2024/01/27 03:05:00;;;;;;;1.38;1.30;;;0.10;99.90;;;;;;4929163;29;20155;-33
2024/01/27 03:07:26;;;;;;;1.67;1.40;;;0.10;99.90;;;;;;4923919;29;20635;-34
2024/01/27 03:09:52;;;;;;;2.17;1.98;;;0.10;99.90;;;;;;4927272;29;20421;-36
2024/01/27 03:12:18;;;;;;;3.65;2.00;;;0.20;99.90;;;;;;4927007;29;20044;-34
2024/01/27 03:14:46;;;;;;;2.90;1.58;;;0.20;99.90;;;;;;4906833;29;20037;-33
2024/01/27 03:17:11;;;;;;;1.33;1.27;;;0.20;99.90;;;;;;4924286;29;20035;-36
2024/01/27 03:19:37;;;;;;;1.77;1.67;;;0.30;99.90;;;;;;4921992;29;20401;-33
2024/01/27 03:22:02;;;;;;;2.03;1.88;;;0.20;99.90;;;;;;4920211;29;20095;-33
2024/01/27 03:24:28;;;;;;;1.75;1.38;;;0.20;99.90;;;;;;4921566;29;20040;-36
2024/01/27 03:26:54;;;;;;;2.05;1.27;;;0.20;99.90;;;;;;4921431;29;20633;-37
2024/01/27 03:29:20;;;;;;;1.95;1.52;;;0.20;99.90;;;;;;4926682;29;20028;-33
2024/01/27 03:31:45;;;;;;;1.58;1.50;;;0.20;99.90;;;;;;4915458;29;20028;-34
2024/01/27 03:34:11;;;;;;;2.10;1.25;;;0.10;99.90;;;;;;4925049;29;20130;-33
2024/01/27 03:36:36;;;;;;;2.47;1.70;;;0.10;99.90;;;;;;4930382;29;20023;-33
2024/01/27 03:39:03;;;;;;;1.70;1.60;;;0.10;99.90;;;;;;4926213;29;20031;-32
2024/01/27 03:41:29;;;;;;;2.15;1.77;;;-0.10;99.90;;;;;;4924928;29;20063;-34
2024/01/27 03:43:54;;;;;;;1.85;1.75;;;-0.20;99.90;;;;;;4926118;29;20572;-35
2024/01/27 03:46:20;;;;;;;6.57;3.35;;;-0.20;99.90;;;;;;4922138;29;20055;-33
2024/01/27 03:48:45;;;;;;;4.03;3.30;;;-0.30;99.90;;;;;;4926636;29;20363;-33
2024/01/27 03:51:11;;;;;;;3.08;2.65;;;-0.30;99.90;;;;;;4925188;29;20027;-36
2024/01/27 03:53:37;;;;;;;4.93;2.80;;;-0.30;99.90;;;;;;4923636;29;20083;-32
2024/01/27 03:56:04;;;;;;;3.58;2.55;;;-0.20;99.90;;;;;;4925025;29;20035;-33
2024/01/27 03:58:30;;;;;;;4.05;2.58;;;-0.20;99.90;;;;;;4923237;29;20556;-32
2024/01/27 04:00:56;;;;;;;2.17;2.08;;;-0.20;99.90;;;;;;4926040;29;20046;-36
2024/01/27 04:03:22;;;;;;;5.43;2.05;;;-0.10;99.90;;;;;;4925810;29;20477;-33
2024/01/27 04:05:48;;;;;;;5.00;2.10;;;0.00;99.90;;;;;;4927025;29;20032;-35
2024/01/27 04:08:13;;;;;;;4.30;2.17;;;-0.10;99.90;;;;;;4902748;29;20035;-38
2024/01/27 04:10:39;;;;;;;2.58;2.47;;;0.00;99.90;;;;;;4921174;29;20051;-33
2024/01/27 04:13:05;;;;;;;3.55;2.03;;;0.00;99.90;;;;;;4922323;29;20051;-33
2024/01/27 04:15:38;;;;;;;4.20;1.92;;;0.00;99.90;;;;;;4923432;29;20114;-33
2024/01/27 04:18:04;;;;;;;1.52;1.42;;;0.00;99.90;;;;;;4918810;29;20903;-33
2024/01/27 04:20:30;;;;;;;2.58;1.52;;;-0.10;99.90;;;;;;4923088;29;20035;-34
2024/01/27 04:22:55;;;;;;;2.03;1.83;;;-0.10;99.90;;;;;;4927172;29;20111;-36
2024/01/27 04:25:21;;;;;;;1.63;1.52;;;-0.10;99.90;;;;;;4925531;29;20044;-35
2024/01/27 04:27:46;;;;;;;2.75;2.15;;;-0.10;99.90;;;;;;4925916;29;20039;-32
2024/01/27 04:30:12;;;;;;;1.58;1.48;;;-0.20;99.90;;;;;;4924538;29;20032;-34
2024/01/27 04:32:38;;;;;;;2.00;1.45;;;-0.30;99.90;;;;;;4922704;29;20553;-35
2024/01/27 04:35:08;;;;;;;2.20;2.03;;;-0.40;99.90;;;;;;4926317;29;20036;-32
2024/01/27 04:37:33;;;;;;;2.42;2.08;;;-0.40;99.90;;;;;;4919802;29;20080;-32
2024/01/27 04:39:59;;;;;;;5.10;1.98;;;-0.40;99.90;;;;;;4925469;29;20566;-35
2024/01/27 04:42:25;;;;;;;4.30;2.25;;;-0.40;99.90;;;;;;4926100;29;20092;-36
2024/01/27 04:44:50;;;;;;;1.65;1.55;;;-0.40;99.90;;;;;;4926799;29;20043;-37
2024/01/27 04:47:16;;;;;;;2.05;1.85;;;-0.40;99.90;;;;;;4919588;29;20102;-35
2024/01/27 04:49:42;;;;;;;3.80;2.13;;;-0.50;99.90;;;;;;4924106;29;20028;-40
2024/01/27 04:52:08;;;;;;;1.63;1.52;;;-0.50;99.90;;;;;;4923416;29;20409;-37
2024/01/27 04:54:33;;;;;;;3.13;2.08;;;-0.60;99.90;;;;;;4909692;29;20473;-34
2024/01/27 04:56:59;;;;;;;2.92;2.72;;;-0.60;99.90;;;;;;4924411;29;20434;-33
2024/01/27 04:59:24;;;;;;;5.07;2.95;;;-0.50;99.90;;;;;;4924710;29;20040;-38
2024/01/27 05:01:51;;;;;;;4.82;4.43;;;-0.50;99.90;;;;;;4923111;29;20052;-32
2024/01/27 05:04:16;;;;;;;5.80;3.60;;;-0.40;99.90;;;;;;4922591;29;20032;-34
2024/01/27 05:06:45;;;;;;;5.25;4.32;;;-0.40;99.90;;;;;;4925696;29;20239;-33
2024/01/27 05:09:11;;;;;;;2.95;2.70;;;-0.40;99.90;;;;;;4920234;29;20049;-33
2024/01/27 05:11:37;;;;;;;2.05;1.95;;;-0.30;99.90;;;;;;4925790;29;20119;-34
2024/01/27 05:14:03;;;;;;;3.80;2.40;;;-0.40;99.90;;;;;;4926774;29;20119;-38
2024/01/27 05:16:29;;;;;;;1.80;1.70;;;-0.40;99.90;;;;;;4924407;29;20024;-33
2024/01/27 05:18:54;;;;;;;2.10;1.52;;;-0.50;99.90;;;;;;4924396;29;20043;-37
2024/01/27 05:21:20;;;;;;;2.00;1.88;;;-0.50;99.90;;;;;;4924572;29;20036;-33
2024/01/27 05:23:46;;;;;;;3.53;2.05;;;-0.70;99.90;;;;;;4918470;29;20024;-33
2024/01/27 05:26:11;;;;;;;2.83;1.90;;;-0.80;99.90;;;;;;4925342;29;20028;-35
2024/01/27 05:28:39;;;;;;;2.00;1.83;;;-0.80;99.90;;;;;;4926311;29;20039;-33
2024/01/27 05:31:08;;;;;;;2.30;2.10;;;-0.80;99.90;;;;;;4928853;29;20039;-35
2024/01/27 05:33:35;;;;;;;4.30;2.15;;;-0.70;99.90;;;;;;4903076;29;20066;-36
2024/01/27 05:36:00;;;;;;;2.42;2.25;;;-0.70;99.90;;;;;;4923558;29;20099;-33
2024/01/27 05:38:28;;;;;;;1.98;1.88;;;-0.70;99.90;;;;;;4921328;29;20513;-36
2024/01/27 05:40:53;;;;;;;2.50;2.30;;;-0.70;99.90;;;;;;4924519;29;20090;-35
2024/01/27 05:43:19;;;;;;;2.88;2.67;;;-0.70;99.90;;;;;;4924719;29;20668;-33
2024/01/27 05:45:45;;;;;;;1.70;1.63;;;-0.70;99.90;;;;;;4926742;29;20024;-33
2024/01/27 05:48:11;;;;;;;2.83;2.22;;;-0.70;99.90;;;;;;4925680;29;20836;-34
2024/01/27 05:50:36;;;;;;;3.10;2.38;;;-0.70;99.90;;;;;;4921234;29;20032;-40
2024/01/27 05:53:02;;;;;;;4.35;2.05;;;-0.60;99.90;;;;;;4906689;29;20112;-40
2024/01/27 05:55:28;;;;;;;2.88;2.20;;;-0.60;99.90;;;;;;4926089;29;20042;-40
2024/01/27 05:57:56;;;;;;;1.95;1.85;;;-0.60;99.90;;;;;;4923921;29;20027;-40
2024/01/27 06:00:22;;;;;;;7.32;2.30;;;-0.60;99.90;;;;;;4900074;29;20074;-33
2024/01/27 06:02:48;;;;;;;2.65;1.90;;;-0.60;99.90;;;;;;4903560;29;20068;-34
2024/01/27 06:05:14;;;;;;;1.83;1.75;;;-0.60;99.90;;;;;;4904879;29;20478;-34
2024/01/27 06:07:41;;;;;;;3.92;2.55;;;-0.60;99.90;;;;;;4906510;29;20059;-36
2024/01/27 06:10:10;;;;;;;2.70;2.20;;;-0.60;99.90;;;;;;4889163;29;20059;-33
2024/01/27 06:12:37;;;;;;;2.10;1.98;;;-0.60;99.90;;;;;;4921573;29;20035;-37
2024/01/27 06:15:08;;;;;;;4.10;2.30;;;-0.70;99.90;;;;;;4917974;29;20107;-35
2024/01/27 06:17:34;;;;;;;2.13;1.83;;;-0.60;99.90;;;;;;4917505;29;20028;-35
2024/01/27 06:20:00;;;;;;;2.90;2.53;;;-0.70;99.90;;;;;;4906025;29;20381;-35
2024/01/27 06:22:25;;;;;;;3.28;2.92;;;-0.60;99.90;;;;;;4918308;29;20089;-35
2024/01/27 06:24:51;;;;;;;4.93;2.90;;;-0.60;99.90;;;;;;4902105;29;20375;-37
2024/01/27 06:27:20;;;;;;;2.50;2.03;;;-0.60;99.90;;;;;;4922916;29;20111;-33
2024/01/27 06:29:45;;;;;;;5.15;3.10;;;-0.70;99.90;;;;;;4906128;29;20053;-35
2024/01/27 06:32:11;;;;;;;3.97;3.55;;;-0.70;99.90;;;;;;4920574;29;20047;-33
2024/01/27 06:34:37;;;;;;;4.80;2.28;;;-0.90;99.90;;;;;;4923931;29;20490;-36
2024/01/27 06:37:03;;;;;;;2.97;2.47;;;-0.90;99.90;;;;;;4905520;29;20054;-35
2024/01/27 06:39:29;;;;;;;2.78;2.47;;;-1.00;99.90;;;;;;4919486;29;20043;-34
2024/01/27 06:41:55;;;;;;;2.97;2.78;;;-1.00;99.90;;;;;;4902884;29;20080;-39
2024/01/27 06:44:21;;;;;;;3.55;2.50;;;-0.90;99.90;;;;;;4926662;29;20019;-34
2024/01/27 06:46:49;;;;;;;2.65;2.45;;;-0.90;99.90;;;;;;4911811;29;20545;-36
2024/01/27 06:49:16;;;;;;;1.80;1.70;;;-1.10;99.90;;;;;;4924067;29;20031;-34
2024/01/27 06:51:43;;;;;;;1.58;1.48;;;-1.10;99.90;;;;;;4908269;29;20032;-33
2024/01/27 06:54:11;;;;;;;2.85;2.63;;;-1.20;99.90;;;;;;4920783;29;20066;-36
2024/01/27 06:56:38;;;;;;;2.50;2.30;;;-1.40;99.90;;;;;;4925665;29;20039;-33
2024/01/27 06:59:12;;;;;;;4.32;2.40;;;-1.40;99.90;;;;;;4908971;29;20039;-34
2024/01/27 07:01:37;;;;;;;3.60;2.90;;;-1.40;99.90;;;;;;4924691;29;20038;-32
2024/01/27 07:04:03;;;;;;;2.92;2.40;;;-1.40;99.90;;;;;;4927840;29;20028;-34
2024/01/27 07:06:28;;;;;;;3.88;2.55;;;-1.30;99.90;;;;;;4926501;29;20040;-33
2024/01/27 07:08:55;;;;;;;3.17;2.63;;;-1.30;99.90;;;;;;4929104;29;20044;-36
2024/01/27 07:11:20;;;;;;;2.55;2.35;;;-1.30;99.90;;;;;;4925568;29;20098;-41
2024/01/27 07:13:46;;;;;;;3.72;2.83;;;-1.20;99.90;;;;;;4923687;29;20032;-43
2024/01/27 07:16:12;;;;;;;3.08;2.70;;;-1.20;99.90;;;;;;4924254;29;20430;-43
2024/01/27 07:18:37;;;;;;;2.92;2.25;;;-1.20;99.90;;;;;;4927941;29;20647;-41
2024/01/27 07:21:03;;;;;;;2.30;2.10;;;-1.20;99.90;;;;;;4926804;29;20454;-38
2024/01/27 07:23:29;;;;;;;2.80;2.60;;;-1.20;99.90;;;;;;4927918;29;20034;-41
2024/01/27 07:25:54;;;;;;;3.17;2.97;;;-1.10;99.90;;;;;;4928008;29;20082;-35
2024/01/27 07:28:20;;;;;;;2.75;2.53;;;-1.10;99.90;;;;;;4923116;29;20036;-41
2024/01/27 07:30:45;;;;;;;2.97;2.13;;;-1.10;99.90;;;;;;4920400;29;20031;-40
2024/01/27 07:33:11;;;;;;;3.95;3.22;;;-1.10;99.90;;;;;;4923393;29;20027;-40
2024/01/27 07:35:37;;;;;;;4.40;3.88;;;-1.00;99.90;;;;;;4921994;29;20115;-41
2024/01/27 07:38:02;;;;;;;4.20;3.65;;;-1.10;99.90;;;;;;4925317;29;20026;-42
2024/01/27 07:40:28;;;;;;;4.22;3.72;;;-1.10;99.90;;;;;;4921775;29;20055;-40
2024/01/27 07:42:54;;;;;;;2.92;2.53;;;-1.10;99.90;;;;;;4922453;29;20032;-40
2024/01/27 07:45:20;;;;;;;2.50;1.60;;;-1.20;99.90;;;;;;4927518;29;20032;-43
2024/01/27 07:47:45;;;;;;;2.03;1.88;;;-1.20;99.90;;;;;;4927640;29;20035;-40
2024/01/27 07:50:11;;;;;;;3.08;2.88;;;-1.20;99.90;;;;;;4907658;29;20028;-41
2024/01/27 07:52:37;;;;;;;3.05;2.80;;;-1.30;99.90;;;;;;4906437;29;20027;-33
2024/01/27 07:55:03;;;;;;;3.20;2.97;;;-1.40;99.90;;;;;;4922582;29;20036;-32
2024/01/27 07:57:28;;;;;;;4.60;3.53;;;-1.40;99.90;;;;;;4925988;29;20651;-32
2024/01/27 07:59:54;;;;;;;6.10;4.13;;;-1.30;99.90;;;;;;4924115;29;20119;-33
2024/01/27 08:02:19;;;;;;;6.78;4.55;;;-1.20;99.90;;;;;;4918645;29;20063;-32
2024/01/27 08:04:45;;;;;;;6.70;3.70;;;-1.10;99.90;;;;;;4926828;29;20662;-33
2024/01/27 08:07:11;;;;;;;14.40;6.55;;;-1.10;99.90;;;;;;4922592;29;20031;-35
2024/01/27 08:09:38;;;;;;;12.57;6.35;;;-1.00;99.90;;;;;;4926744;29;20024;-33
2024/01/27 08:12:04;;;;;;;9.90;6.20;;;-1.00;99.90;;;;;;4916198;29;20438;-39
2024/01/27 08:14:30;;;;;;;4.65;4.13;;;-0.90;99.90;;;;;;4922851;29;20027;-39
2024/01/27 08:16:56;;;;;;;5.50;4.97;;;-0.90;99.90;;;;;;4911126;29;20102;-41
2024/01/27 08:19:23;;;;;;;5.15;3.25;;;-0.80;99.90;;;;;;4926857;29;20035;-40
2024/01/27 08:21:49;;;;;;;3.85;3.35;;;-0.70;99.90;;;;;;4920455;29;20489;-42
2024/01/27 08:24:14;;;;;;;12.18;4.50;;;-0.70;99.90;;;;;;4922808;29;20062;-39
2024/01/27 08:26:42;;;;;;;8.68;4.82;;;-0.70;99.90;;;;;;4921201;29;20034;-42
2024/01/27 08:29:10;;;;;;;5.50;4.45;;;-0.60;99.90;;;;;;4920336;29;20083;-42
2024/01/27 08:31:38;;;;;;;;;;;-0.70;99.90;;;;;;4923667;29;20039;-42
2024/01/27 08:34:03;;;;;;;3.67;2.85;;;-0.70;99.90;;;;;;4908299;29;19911;-40
2024/01/27 08:36:29;;;;;;;2.10;2.00;;;-0.60;99.90;;;;;;4924895;29;20038;-40
2024/01/27 08:38:55;;;;;;;1.77;1.70;;;-0.40;99.90;;;;;;4919662;29;20040;-34
2024/01/27 08:41:20;;;;;;;8.02;4.47;;;-0.30;99.90;;;;;;4921203;29;20055;-43
2024/01/27 08:43:46;;;;;;;5.68;3.67;;;-0.30;99.90;;;;;;4920476;29;20035;-42
2024/01/27 08:46:13;;;;;;;3.85;3.22;;;-0.20;99.90;;;;;;4922442;29;20569;-39
2024/01/27 08:48:41;;;;;;;6.93;3.72;;;-0.20;99.90;;;;;;4921695;29;20110;-34
2024/01/27 08:51:09;;;;;;;7.20;3.80;;;-0.20;99.90;;;;;;4919639;29;20552;-42
2024/01/27 08:53:34;;;;;;;2.88;2.67;;;-0.20;99.90;;;;;;4925007;29;20489;-41
2024/01/27 08:56:01;;;;;;;3.88;2.50;;;-0.10;99.90;;;;;;4921294;29;20032;-42
2024/01/27 08:58:26;;;;;;;3.63;3.00;;;-0.10;99.90;;;;;;4924570;29;20396;-37
2024/01/27 09:00:52;;;;;;;5.50;3.30;;;0.00;99.90;;;;;;4925260;29;20032;-40
2024/01/27 09:03:20;;;;;;;3.50;3.20;;;0.00;99.90;;;;;;4921019;29;20090;-43
2024/01/27 09:05:47;;;;;;;5.47;3.47;;;0.20;99.90;;;;;;4924313;29;20057;-40
2024/01/27 09:08:12;;;;;;;4.68;3.08;;;0.20;99.90;;;;;;4923910;29;20039;-43
2024/01/27 09:10:38;;;;;;;6.07;3.63;;;0.30;99.90;;;;;;4923288;29;20040;-42
2024/01/27 09:13:04;;;;;;;4.28;3.13;;;0.40;99.90;;;;;;4924004;29;20032;-41
2024/01/27 09:15:31;;;;;;;4.05;3.53;;;0.50;99.90;;;;;;4913098;29;20032;-43
2024/01/27 09:17:56;;;;;;;5.32;3.45;;;0.60;99.90;;;;;;4917102;29;20036;-37
2024/01/27 09:20:22;;;;;;;5.00;3.55;;;0.70;99.90;;;;;;4913966;29;20501;-39
2024/01/27 09:22:50;;;;;;;10.15;4.60;;;0.80;99.90;;;;;;4922036;29;21176;-35
2024/01/27 09:25:15;;;;;;;3.25;2.95;;;0.90;99.90;;;;;;4922390;29;20044;-35
2024/01/27 09:27:42;;;;;;;7.07;3.92;;;1.00;99.90;;;;;;4923592;29;20119;-37
2024/01/27 09:30:08;;;;;;;4.80;4.15;;;1.10;99.90;;;;;;4898387;29;20043;-40
2024/01/27 09:32:33;;;;;;;3.45;3.05;;;1.20;99.90;;;;;;4921070;29;20682;-39
2024/01/27 09:34:59;;;;;;;5.32;3.58;;;1.30;99.90;;;;;;4922789;29;20063;-40
2024/01/27 09:37:25;;;;;;;10.80;6.28;;;1.40;99.90;;;;;;4923880;29;20042;-40
2024/01/27 09:39:50;;;;;;;9.40;5.28;;;1.40;99.90;;;;;;4923352;29;20098;-37
2024/01/27 09:42:21;;;;;;;6.88;4.85;;;1.40;99.90;;;;;;4920261;29;20486;-39
2024/01/27 09:44:49;;;;;;;7.88;4.20;;;1.50;99.90;;;;;;4925035;29;20035;-41
2024/01/27 09:47:15;;;;;;;6.43;5.38;;;1.60;99.90;;;;;;4926173;29;20032;-39
2024/01/27 09:49:42;;;;;;;8.48;5.15;;;1.70;99.90;;;;;;4906000;29;20130;-39
2024/01/27 09:52:09;;;;;;;7.47;5.00;;;1.70;99.90;;;;;;4924619;29;20035;-40
2024/01/27 09:54:35;;;;;;;7.25;4.72;;;1.80;99.90;;;;;;4924617;29;20075;-39
2024/01/27 09:57:02;;;;;;;5.40;4.25;;;1.80;99.90;;;;;;4923609;29;20110;-41
2024/01/27 09:59:28;;;;;;;5.60;4.30;;;1.90;99.90;;;;;;4923761;29;20069;-39
2024/01/27 10:01:56;;;;;;;8.60;4.45;;;1.90;99.90;;;;;;4920762;29;20040;-40
2024/01/27 10:04:24;;;;;;;6.13;3.70;;;2.00;99.90;;;;;;4923739;29;20035;-39
2024/01/27 10:06:50;;;;;;;7.07;4.72;;;2.20;99.90;;;;;;4918616;29;20066;-37
2024/01/27 10:09:17;;;;;;;6.28;4.32;;;2.20;99.90;;;;;;4916577;29;20625;-41
2024/01/27 10:11:46;;;;;;;4.32;3.03;;;2.30;99.90;;;;;;4923682;29;20146;-41
2024/01/27 10:14:11;;;;;;;5.72;3.40;;;2.40;99.90;;;;;;4920119;29;20450;-39
2024/01/27 10:16:44;;;;;;;3.47;2.83;;;2.40;99.90;;;;;;4923288;29;20019;-39
2024/01/27 10:19:17;;;;;;;7.80;3.60;;;2.30;99.90;;;;;;4927221;29;20039;-37
2024/01/27 10:21:43;;;;;;;5.03;3.28;;;2.40;99.90;;;;;;4922762;29;20047;-41
2024/01/27 10:24:09;;;;;;;5.63;2.70;;;2.40;99.90;;;;;;4927847;29;20032;-40
2024/01/27 10:26:35;;;;;;;5.20;3.55;;;2.50;99.90;;;;;;4927204;29;21294;-39
2024/01/27 10:29:01;;;;;;;13.18;4.85;;;2.60;99.90;;;;;;4918775;29;20063;-41
2024/01/27 10:31:33;;;;;;;7.68;3.13;;;2.60;99.90;;;;;;4918897;29;20244;-33
2024/01/27 10:34:01;;;;;;;11.25;5.43;;;2.70;99.90;;;;;;4929702;29;20035;-34
2024/01/27 10:36:40;;;;;;;11.25;3.92;;;2.70;99.90;;;;;;4907790;29;20028;-34
2024/01/27 10:39:20;;;;;;;48.58;25.40;;;2.70;99.90;;;;;;4905607;29;20044;-33
2024/01/27 10:41:48;;;;;;;8.20;4.70;;;2.70;99.90;;;;;;4921613;29;20043;-33
2024/01/27 10:44:18;;;;;;;28.50;15.93;;;2.80;99.90;;;;;;4910226;29;20035;-33
2024/01/27 10:46:49;;;;;;;11.25;6.72;;;2.80;99.90;;;;;;4923649;29;20031;-32
2024/01/27 10:49:16;;;;;;;11.63;4.78;;;2.90;99.90;;;;;;4926242;29;20032;-35
2024/01/27 10:51:53;;;;;;;5.13;4.50;;;3.00;99.90;;;;;;4922247;29;20482;-32
2024/01/27 10:54:28;;;;;;;10.15;3.67;;;3.10;99.90;;;;;;4922549;29;20330;-34
2024/01/27 10:56:57;;;;;;;7.18;2.85;;;3.10;99.90;;;;;;4871675;29;20030;-33
2024/01/27 10:59:25;;;;;;;9.68;6.32;;;3.10;99.90;;;;;;4923708;29;20164;-33
2024/01/27 11:01:53;;;;;;;5.82;3.33;;;3.10;99.90;;;;;;4901274;29;20048;-34
2024/01/27 11:04:26;;;;;;;5.40;2.22;;;3.10;99.90;;;;;;4907302;29;20044;-33
2024/01/27 11:06:53;;;;;;;3.83;2.67;;;3.10;99.90;;;;;;4925221;29;20094;-34
2024/01/27 11:09:21;;;;;;;4.93;3.20;;;3.10;99.90;;;;;;4882428;29;20024;-36
2024/01/27 11:11:48;;;;;;;10.40;3.10;;;3.00;99.90;;;;;;4905778;29;20055;-33
2024/01/27 11:14:14;;;;;;;5.85;4.22;;;3.10;99.90;;;;;;4893434;29;21154;-35
2024/01/27 11:16:44;;;;;;;5.22;3.20;;;3.20;99.90;;;;;;4926499;29;20028;-33
2024/01/27 11:19:11;;;;;;;7.90;3.25;;;3.30;99.90;;;;;;4911350;29;20024;-40
2024/01/27 11:21:37;;;;;;;7.70;3.72;;;3.30;99.90;;;;;;4923136;29;20175;-32
2024/01/27 11:24:13;;;;;;;6.97;3.03;;;3.30;99.90;;;;;;4922989;29;20123;-33
2024/01/27 11:26:39;;;;;;;6.07;3.17;;;3.30;99.90;;;;;;4920985;29;20032;-34
2024/01/27 11:29:09;;;;;;;3.95;2.83;;;3.40;99.90;;;;;;4924955;29;20090;-34
2024/01/27 11:31:35;;;;;;;6.53;2.80;;;3.50;99.90;;;;;;4923668;29;20115;-37
2024/01/27 11:34:01;;;;;;;4.03;2.58;;;3.60;99.90;;;;;;4922718;29;20577;-36
2024/01/27 11:36:27;;;;;;;6.72;2.50;;;3.50;99.90;;;;;;4923102;29;20151;-34
2024/01/27 11:38:53;;;;;;;5.25;2.30;;;3.50;99.90;;;;;;4925145;29;20249;-37
2024/01/27 11:41:29;;;;;;;2.65;2.33;;;3.50;99.90;;;;;;4925215;29;20749;-42
2024/01/27 11:43:57;;;;;;;7.00;2.17;;;3.60;99.90;;;;;;4906249;29;20035;-37
2024/01/27 11:46:23;;;;;;;4.68;2.70;;;3.50;99.90;;;;;;4921801;29;20028;-40
2024/01/27 11:48:48;;;;;;;4.22;2.28;;;3.50;99.90;;;;;;4922144;29;20118;-38
2024/01/27 11:51:15;;;;;;;7.82;3.15;;;3.60;99.90;;;;;;4917557;29;20262;-33
2024/01/27 11:53:40;;;;;;;7.28;2.50;;;3.60;99.90;;;;;;4919436;29;20111;-33
2024/01/27 11:56:07;;;;;;;5.50;2.72;;;3.60;99.90;;;;;;4925389;29;20107;-33
2024/01/27 11:58:33;;;;;;;4.38;2.60;;;3.60;99.90;;;;;;4928287;29;20028;-35
2024/01/27 12:00:59;;;;;;;8.23;2.83;;;3.70;99.90;;;;;;4921491;29;20043;-33
2024/01/27 12:03:25;;;;;;;2.30;2.00;;;3.70;99.90;;;;;;4923837;29;20031;-33
2024/01/27 12:05:51;;;;;;;3.97;2.30;;;3.60;99.90;;;;;;4919286;29;20032;-33
2024/01/27 12:08:17;;;;;;;4.35;2.25;;;3.70;99.90;;;;;;4921542;29;20031;-34
2024/01/27 12:10:43;;;;;;;3.15;2.08;;;3.70;99.90;;;;;;4921136;29;20052;-33
2024/01/27 12:13:09;;;;;;;4.07;2.25;;;3.80;99.90;;;;;;4922769;29;20071;-33
2024/01/27 12:15:34;;;;;;;7.55;2.88;;;4.00;99.90;;;;;;4926593;29;20031;-36
2024/01/27 12:18:00;;;;;;;7.72;2.60;;;4.00;99.90;;;;;;4927925;29;20489;-36
2024/01/27 12:20:26;;;;;;;4.80;2.97;;;4.10;99.90;;;;;;4925491;29;20035;-33
2024/01/27 12:23:05;;;;;;;5.47;3.05;;;4.10;99.90;;;;;;4921576;29;20051;-33
2024/01/27 12:25:31;;;;;;;5.93;2.50;;;4.20;99.90;;;;;;4929416;29;20115;-35
2024/01/27 12:28:00;;;;;;;5.35;2.70;;;4.20;99.90;;;;;;4926136;29;20561;-35
2024/01/27 12:30:26;;;;;;;7.72;2.47;;;4.10;99.90;;;;;;4925131;29;20039;-33
2024/01/27 12:32:52;;;;;;;5.43;2.58;;;4.20;99.90;;;;;;4924717;29;20036;-33
2024/01/27 12:35:18;;;;;;;4.50;2.97;;;4.30;99.90;;;;;;4922993;29;20032;-33
2024/01/27 12:37:44;;;;;;;4.05;2.47;;;4.20;99.90;;;;;;4924420;29;20485;-33
2024/01/27 12:40:20;;;;;;;2.55;2.10;;;4.30;99.90;;;;;;4920237;29;20020;-33
2024/01/27 12:42:46;;;;;;;4.70;2.22;;;4.30;99.90;;;;;;4919658;29;20482;-34
2024/01/27 12:45:11;;;;;;;2.63;1.98;;;4.40;99.90;;;;;;4924916;29;20036;-35
2024/01/27 12:47:37;;;;;;;7.03;2.85;;;4.40;99.90;;;;;;4921720;29;20094;-34
2024/01/27 12:50:03;;;;;;;6.07;2.05;;;4.40;99.90;;;;;;4917667;29;20032;-34